createdAt,value
2022-10-30T00:01:36.724Z,8.46
2022-10-30T00:04:03.422Z,8.52
2022-10-30T00:06:29.964Z,8.57
2022-10-30T00:08:56.515Z,8.67
2022-10-30T00:11:23.104Z,8.71
2022-10-30T00:13:50.084Z,8.73
2022-10-30T00:16:16.670Z,8.54
2022-10-30T00:18:43.411Z,8.36
2022-10-30T00:21:12.783Z,8.26
2022-10-30T00:23:40.939Z,8.19
2022-10-30T00:26:08.114Z,8.07
2022-10-30T00:28:35.203Z,8.06
2022-10-30T00:31:03.491Z,8.10
2022-10-30T00:33:30.212Z,8.06
2022-10-30T00:35:56.877Z,8.02
2022-10-30T00:38:23.495Z,8.01
2022-10-30T00:40:50.143Z,7.88
2022-10-30T00:43:37.678Z,7.83
2022-10-30T00:46:20.870Z,7.76
2022-10-30T00:48:58.063Z,7.70
2022-10-30T00:51:25.452Z,7.67
2022-10-30T00:53:53.390Z,7.60
2022-10-30T00:56:22.011Z,7.52
2022-10-30T00:58:58.260Z,7.51
2022-10-30T01:01:28.724Z,7.52
2022-10-30T01:04:00.534Z,7.51
2022-10-30T01:06:30.179Z,7.47
2022-10-30T01:08:59.835Z,7.54
2022-10-30T01:11:27.116Z,7.50
2022-10-30T01:13:57.727Z,7.54
2022-10-30T01:16:56.141Z,7.54
2022-10-30T01:19:56.877Z,7.48
2022-10-30T01:22:57.119Z,7.48
2022-10-30T01:25:35.723Z,7.45
2022-10-30T01:28:14.387Z,7.52
2022-10-30T01:31:04.461Z,7.52
2022-10-30T01:34:12.205Z,7.40
2022-10-30T01:36:46.074Z,7.34
2022-10-30T01:39:17.783Z,7.29
2022-10-30T01:41:45.533Z,7.26
2022-10-30T01:44:25.335Z,7.21
2022-10-30T01:47:23.005Z,7.13
2022-10-30T01:50:04.476Z,7.02
2022-10-30T01:52:47.561Z,6.95
2022-10-30T01:55:29.724Z,6.91
2022-10-30T01:58:14.839Z,6.93
2022-10-30T02:00:45.665Z,6.90
2022-10-30T02:03:12.513Z,6.99
2022-10-30T02:05:43.860Z,6.94
2022-10-30T02:08:10.719Z,6.91
2022-10-30T02:10:38.465Z,7.01
2022-10-30T02:13:05.424Z,7.02
2022-10-30T02:15:32.378Z,7.02
2022-10-30T02:18:00.914Z,7.02
2022-10-30T02:20:28.446Z,6.99
2022-10-30T02:22:59.012Z,6.90
2022-10-30T02:25:26.351Z,6.73
2022-10-30T02:27:53.273Z,6.86
2022-10-30T02:30:19.878Z,6.96
2022-10-30T02:32:47.125Z,7.02
2022-10-30T02:35:13.852Z,6.97
2022-10-30T02:37:40.425Z,7.05
2022-10-30T02:40:21.923Z,7.08
2022-10-30T02:42:53.220Z,7.14
2022-10-30T02:45:20.091Z,7.11
2022-10-30T02:47:47.080Z,7.15
2022-10-30T02:50:13.774Z,7.07
2022-10-30T02:52:40.370Z,7.11
2022-10-30T02:55:07.146Z,7.09
2022-10-30T02:57:33.857Z,7.01
2022-10-30T03:00:00.451Z,6.92
2022-10-30T03:02:27.137Z,6.80
2022-10-30T03:04:53.682Z,6.70
2022-10-30T03:07:20.425Z,6.65
2022-10-30T03:09:48.452Z,6.62
2022-10-30T03:12:15.138Z,6.55
2022-10-30T03:14:41.776Z,6.42
2022-10-30T03:17:08.353Z,6.42
2022-10-30T03:19:35.686Z,6.42
2022-10-30T03:22:02.290Z,6.40
2022-10-30T03:24:28.836Z,6.37
2022-10-30T03:26:55.512Z,6.42
2022-10-30T03:29:22.113Z,6.35
2022-10-30T03:31:48.644Z,6.42
2022-10-30T03:34:15.230Z,6.40
2022-10-30T03:36:42.123Z,6.44
2022-10-30T03:39:08.909Z,6.43
2022-10-30T03:41:35.628Z,6.45
2022-10-30T03:44:02.165Z,6.43
2022-10-30T03:46:30.809Z,6.38
2022-10-30T03:48:57.395Z,6.37
2022-10-30T03:51:23.955Z,6.43
2022-10-30T03:53:50.611Z,6.45
2022-10-30T03:56:17.226Z,6.44
2022-10-30T03:58:43.768Z,6.39
2022-10-30T04:01:10.957Z,6.35
2022-10-30T04:03:37.648Z,6.35
2022-10-30T04:06:04.339Z,6.34
2022-10-30T04:08:30.968Z,6.28
2022-10-30T04:10:57.622Z,6.20
2022-10-30T04:13:24.323Z,5.98
2022-10-30T04:15:56.266Z,6.14
2022-10-30T04:18:25.322Z,6.04
2022-10-30T04:20:52.276Z,5.99
2022-10-30T04:23:20.840Z,5.90
2022-10-30T04:25:47.999Z,5.92
2022-10-30T04:28:14.897Z,5.91
2022-10-30T04:30:41.487Z,5.91
2022-10-30T04:33:11.792Z,5.97
2022-10-30T04:35:38.796Z,5.94
2022-10-30T04:38:07.799Z,5.99
2022-10-30T04:40:36.855Z,5.97
2022-10-30T04:43:04.380Z,5.97
2022-10-30T04:45:32.252Z,5.95
2022-10-30T04:48:16.259Z,5.97
2022-10-30T04:50:43.796Z,5.97
2022-10-30T04:53:17.224Z,5.93
2022-10-30T04:55:44.623Z,5.90
2022-10-30T04:58:12.836Z,5.88
2022-10-30T05:00:39.809Z,5.83
2022-10-30T05:03:06.434Z,5.88
2022-10-30T05:05:33.049Z,5.94
2022-10-30T05:08:00.134Z,5.92
2022-10-30T05:10:27.154Z,5.98
2022-10-30T05:12:54.416Z,6.18
2022-10-30T05:15:21.514Z,6.32
2022-10-30T05:17:51.787Z,6.53
2022-10-30T05:20:19.080Z,6.79
2022-10-30T05:22:45.960Z,7.18
2022-10-30T05:25:12.476Z,7.64
2022-10-30T05:27:39.029Z,8.08
2022-10-30T05:30:06.165Z,8.65
2022-10-30T05:32:32.806Z,9.08
2022-10-30T05:34:59.355Z,9.22
2022-10-30T05:37:26.041Z,9.60
2022-10-30T05:39:52.661Z,10.22
2022-10-30T05:42:19.226Z,10.98
2022-10-30T05:45:02.287Z,11.42
2022-10-30T05:47:29.281Z,11.53
2022-10-30T05:49:55.941Z,12.00
2022-10-30T05:52:22.520Z,12.30
2022-10-30T05:54:49.071Z,12.28
2022-10-30T05:57:15.624Z,12.19
2022-10-30T05:59:42.225Z,12.28
2022-10-30T06:02:09.006Z,12.38
2022-10-30T06:04:35.707Z,12.39
2022-10-30T06:07:02.242Z,12.43
2022-10-30T06:09:28.784Z,11.93
2022-10-30T06:11:55.892Z,11.52
2022-10-30T06:14:22.448Z,11.36
2022-10-30T06:16:49.057Z,11.11
2022-10-30T06:19:18.948Z,11.01
2022-10-30T06:21:46.157Z,10.81
2022-10-30T06:24:13.233Z,10.75
2022-10-30T06:26:40.518Z,10.28
2022-10-30T06:29:07.294Z,10.23
2022-10-30T06:31:33.890Z,10.30
2022-10-30T06:34:00.581Z,10.35
2022-10-30T06:36:27.223Z,10.41
2022-10-30T06:38:53.800Z,10.21
2022-10-30T06:41:23.349Z,9.98
2022-10-30T06:43:52.405Z,10.23
2022-10-30T06:46:19.006Z,10.21
2022-10-30T06:48:45.554Z,10.03
2022-10-30T06:51:15.773Z,9.88
2022-10-30T06:53:42.735Z,9.90
2022-10-30T06:56:09.949Z,10.08
2022-10-30T06:58:39.182Z,9.97
2022-10-30T07:01:08.980Z,10.06
2022-10-30T07:03:35.624Z,10.09
2022-10-30T07:06:02.427Z,10.12
2022-10-30T07:08:29.031Z,10.09
2022-10-30T07:10:58.324Z,10.37
2022-10-30T07:13:24.968Z,10.33
2022-10-30T07:15:51.619Z,10.42
2022-10-30T07:18:18.163Z,10.35
2022-10-30T07:20:44.760Z,10.43
2022-10-30T07:23:11.353Z,10.57
2022-10-30T07:25:37.981Z,10.79
2022-10-30T07:28:04.948Z,10.95
2022-10-30T07:30:31.603Z,10.89
2022-10-30T07:33:00.359Z,10.96
2022-10-30T07:35:28.101Z,11.36
2022-10-30T07:37:55.177Z,11.62
2022-10-30T07:40:23.509Z,11.95
2022-10-30T07:42:55.334Z,12.17
2022-10-30T07:45:22.380Z,12.04
2022-10-30T07:47:48.993Z,12.29
2022-10-30T07:50:15.690Z,12.46
2022-10-30T07:52:42.252Z,12.68
2022-10-30T07:55:09.265Z,12.77
2022-10-30T07:57:40.373Z,12.76
2022-10-30T08:00:09.639Z,12.76
2022-10-30T08:02:36.376Z,12.87
2022-10-30T08:05:04.136Z,13.04
2022-10-30T08:07:32.004Z,13.29
2022-10-30T08:09:58.953Z,13.08
2022-10-30T08:12:26.536Z,13.28
2022-10-30T08:14:53.754Z,13.60
2022-10-30T08:17:20.963Z,13.67
2022-10-30T08:19:47.604Z,13.72
2022-10-30T08:22:14.212Z,13.76
2022-10-30T08:24:40.870Z,13.95
2022-10-30T08:27:07.428Z,14.12
2022-10-30T08:29:34.952Z,14.12
2022-10-30T08:32:01.711Z,14.13
2022-10-30T08:34:31.628Z,14.33
2022-10-30T08:36:58.444Z,14.28
2022-10-30T08:39:25.111Z,14.17
2022-10-30T08:41:51.813Z,14.49
2022-10-30T08:44:18.706Z,14.74
2022-10-30T08:46:45.258Z,14.76
2022-10-30T08:49:11.851Z,14.72
2022-10-30T08:51:38.442Z,14.93
2022-10-30T08:54:05.043Z,14.81
2022-10-30T08:56:31.631Z,15.17
2022-10-30T08:58:58.321Z,15.37
2022-10-30T09:01:24.978Z,15.48
2022-10-30T09:03:51.650Z,15.50
2022-10-30T09:06:18.369Z,15.26
2022-10-30T09:08:46.251Z,15.65
2022-10-30T09:11:12.864Z,15.99
2022-10-30T09:13:39.481Z,15.98
2022-10-30T09:16:06.586Z,16.23
2022-10-30T09:18:33.382Z,16.32
2022-10-30T09:21:03.118Z,16.55
2022-10-30T09:23:31.579Z,16.84
2022-10-30T09:25:58.254Z,16.62
2022-10-30T09:28:24.969Z,17.06
2022-10-30T09:30:56.284Z,17.19
2022-10-30T09:33:23.856Z,17.26
2022-10-30T09:35:50.601Z,17.55
2022-10-30T09:38:17.370Z,17.54
2022-10-30T09:40:43.902Z,17.84
2022-10-30T09:43:34.427Z,17.71
2022-10-30T09:46:39.469Z,17.74
2022-10-30T09:49:53.712Z,17.78
2022-10-30T09:52:29.599Z,18.14
2022-10-30T09:55:11.419Z,17.63
2022-10-30T09:57:59.952Z,18.23
2022-10-30T10:00:44.364Z,18.33
2022-10-30T10:03:34.656Z,18.25
2022-10-30T10:06:02.862Z,18.07
2022-10-30T10:08:41.095Z,18.22
2022-10-30T10:11:16.919Z,18.16
2022-10-30T10:14:08.589Z,18.47
2022-10-30T10:16:39.471Z,18.73
2022-10-30T10:19:12.602Z,18.96
2022-10-30T10:21:53.472Z,19.24
2022-10-30T10:24:27.198Z,19.43
2022-10-30T10:27:27.850Z,19.72
2022-10-30T10:29:57.451Z,19.93
2022-10-30T10:32:45.477Z,20.12
2022-10-30T10:35:30.726Z,20.40
2022-10-30T10:38:54.758Z,20.40
2022-10-30T10:41:52.624Z,20.11
2022-10-30T10:44:46.552Z,20.42
2022-10-30T10:47:36.373Z,20.29
2022-10-30T10:50:25.872Z,20.64
2022-10-30T10:53:11.454Z,20.46
2022-10-30T10:55:39.458Z,20.70
2022-10-30T10:58:33.705Z,20.77
2022-10-30T11:01:00.776Z,20.86
2022-10-30T11:03:42.653Z,20.90
2022-10-30T11:06:21.221Z,20.98
2022-10-30T11:08:49.322Z,20.86
2022-10-30T11:11:15.990Z,20.92
2022-10-30T11:13:44.542Z,21.26
2022-10-30T11:16:37.974Z,21.28
2022-10-30T11:19:09.163Z,21.49
2022-10-30T11:21:42.353Z,21.75
2022-10-30T11:24:28.309Z,21.84
2022-10-30T11:26:57.499Z,21.71
2022-10-30T11:29:32.138Z,21.88
2022-10-30T11:32:04.815Z,22.02
2022-10-30T11:34:37.996Z,22.19
2022-10-30T11:37:05.176Z,22.15
2022-10-30T11:39:35.572Z,22.34
2022-10-30T11:42:04.500Z,22.52
2022-10-30T11:44:47.547Z,22.54
2022-10-30T11:47:16.669Z,22.69
2022-10-30T11:49:55.259Z,22.66
2022-10-30T11:52:23.649Z,22.76
2022-10-30T11:55:09.263Z,22.84
2022-10-30T11:57:44.901Z,22.84
2022-10-30T12:00:26.665Z,23.06
2022-10-30T12:03:00.957Z,22.98
2022-10-30T12:05:30.702Z,23.11
2022-10-30T12:08:06.480Z,23.35
2022-10-30T12:10:38.726Z,23.08
2022-10-30T12:13:06.540Z,23.52
2022-10-30T12:15:37.415Z,23.41
2022-10-30T12:18:17.382Z,23.14
2022-10-30T12:20:47.887Z,23.12
2022-10-30T12:23:22.169Z,23.14
2022-10-30T12:25:50.843Z,23.26
2022-10-30T12:28:31.744Z,23.22
2022-10-30T12:31:04.931Z,23.29
2022-10-30T12:33:42.124Z,23.47
2022-10-30T12:36:22.939Z,23.52
2022-10-30T12:38:54.552Z,24.09
2022-10-30T12:41:28.795Z,23.89
2022-10-30T12:44:16.386Z,23.99
2022-10-30T12:46:47.175Z,24.26
2022-10-30T12:49:31.064Z,24.34
2022-10-30T12:52:36.066Z,24.33
2022-10-30T12:55:21.543Z,24.42
2022-10-30T12:58:17.206Z,24.74
2022-10-30T13:01:06.763Z,24.43
2022-10-30T13:03:39.864Z,24.33
2022-10-30T13:06:31.685Z,24.50
2022-10-30T13:09:48.499Z,24.56
2022-10-30T13:12:38.017Z,24.15
2022-10-30T13:15:36.971Z,23.87
2022-10-30T13:18:21.642Z,23.55
2022-10-30T13:21:11.029Z,23.58
2022-10-30T13:24:12.079Z,23.38
2022-10-30T13:26:46.521Z,23.03
2022-10-30T13:29:44.481Z,22.90
2022-10-30T13:32:42.075Z,22.56
2022-10-30T13:35:45.304Z,22.21
2022-10-30T13:38:58.317Z,22.22
2022-10-30T13:41:46.305Z,21.93
2022-10-30T13:44:24.482Z,22.08
2022-10-30T13:47:06.285Z,21.78
2022-10-30T13:49:41.830Z,21.79
2022-10-30T13:52:11.647Z,21.65
2022-10-30T13:54:48.504Z,21.50
2022-10-30T13:57:26.475Z,21.64
2022-10-30T14:00:01.187Z,21.58
2022-10-30T14:02:27.930Z,21.30
2022-10-30T14:05:26.997Z,21.05
2022-10-30T14:08:08.791Z,21.09
2022-10-30T14:10:56.025Z,21.02
2022-10-30T14:13:55.333Z,20.87
2022-10-30T14:16:44.242Z,20.81
2022-10-30T14:19:15.942Z,20.90
2022-10-30T14:21:52.038Z,20.93
2022-10-30T14:24:23.483Z,20.87
2022-10-30T14:27:14.934Z,20.71
2022-10-30T14:29:50.722Z,20.50
2022-10-30T14:32:19.831Z,20.53
2022-10-30T14:34:58.309Z,20.48
2022-10-30T14:37:27.452Z,20.50
2022-10-30T14:39:55.667Z,20.36
2022-10-30T14:42:30.726Z,20.16
2022-10-30T14:45:33.025Z,20.00
2022-10-30T14:48:26.805Z,19.92
2022-10-30T14:51:13.125Z,19.94
2022-10-30T14:53:42.593Z,19.90
2022-10-30T14:58:42.060Z,19.74
2022-10-30T15:01:40.977Z,19.72
2022-10-30T15:04:24.304Z,19.65
2022-10-30T15:06:53.752Z,19.59
2022-10-30T15:09:32.426Z,19.62
2022-10-30T15:12:36.575Z,19.54
2022-10-30T15:15:06.397Z,19.43
2022-10-30T15:17:39.164Z,19.37
2022-10-30T15:20:14.521Z,19.30
2022-10-30T15:22:41.601Z,19.14
2022-10-30T15:25:20.781Z,19.07
2022-10-30T15:27:51.624Z,19.03
2022-10-30T15:30:21.375Z,19.03
2022-10-30T15:32:48.169Z,19.01
2022-10-30T15:35:26.616Z,18.90
2022-10-30T15:38:06.897Z,18.87
2022-10-30T15:40:38.421Z,18.80
2022-10-30T15:43:12.817Z,18.74
2022-10-30T15:45:42.532Z,18.65
2022-10-30T15:48:26.266Z,18.59
2022-10-30T15:51:17.727Z,18.46
2022-10-30T15:53:46.537Z,18.42
2022-10-30T15:56:23.489Z,18.30
2022-10-30T15:59:23.614Z,18.23
2022-10-30T16:01:53.257Z,18.05
2022-10-30T16:04:23.190Z,17.94
2022-10-30T16:06:59.034Z,17.82
2022-10-30T16:09:27.220Z,17.77
2022-10-30T16:11:58.565Z,17.72
2022-10-30T16:14:28.408Z,17.62
2022-10-30T16:16:59.087Z,17.58
2022-10-30T16:19:29.345Z,17.55
2022-10-30T16:21:57.715Z,17.57
2022-10-30T16:24:34.956Z,17.55
2022-10-30T16:27:16.036Z,17.57
2022-10-30T16:29:43.146Z,17.59
2022-10-30T16:32:16.159Z,17.58
2022-10-30T16:34:44.837Z,17.54
2022-10-30T16:37:22.520Z,17.49
2022-10-30T16:39:51.503Z,17.44
2022-10-30T16:42:23.934Z,17.38
2022-10-30T16:44:50.861Z,17.33
2022-10-30T16:47:17.450Z,17.36
2022-10-30T16:49:49.644Z,17.21
2022-10-30T16:52:17.271Z,17.22
2022-10-30T16:54:51.151Z,17.14
2022-10-30T16:57:32.645Z,17.08
2022-10-30T17:00:00.984Z,16.96
2022-10-30T17:02:31.164Z,16.89
2022-10-30T17:05:37.068Z,16.86
2022-10-30T17:08:05.712Z,16.78
2022-10-30T17:10:42.040Z,16.72
2022-10-30T17:13:36.783Z,16.74
2022-10-30T17:16:26.778Z,16.68
2022-10-30T17:19:01.975Z,16.61
2022-10-30T17:21:40.785Z,16.62
2022-10-30T17:24:20.350Z,16.50
2022-10-30T17:26:56.324Z,16.39
2022-10-30T17:29:45.185Z,16.50
2022-10-30T17:32:20.371Z,16.43
2022-10-30T17:34:48.345Z,16.43
2022-10-30T17:37:15.078Z,16.36
2022-10-30T17:39:41.677Z,16.36
2022-10-30T17:42:10.217Z,16.35
2022-10-30T17:44:36.919Z,16.31
2022-10-30T17:47:18.618Z,16.42
2022-10-30T17:49:46.245Z,16.37
2022-10-30T17:52:14.519Z,16.42
2022-10-30T17:54:42.211Z,16.33
2022-10-30T17:57:13.425Z,16.33
2022-10-30T17:59:40.931Z,16.34
2022-10-30T18:02:19.509Z,16.31
2022-10-30T18:04:47.559Z,16.28
2022-10-30T18:07:15.685Z,16.21
2022-10-30T18:09:42.835Z,16.22
2022-10-30T18:12:17.195Z,16.11
2022-10-30T18:14:45.566Z,16.04
2022-10-30T18:17:12.632Z,16.00
2022-10-30T18:19:39.387Z,15.96
2022-10-30T18:22:06.065Z,15.99
2022-10-30T18:24:32.654Z,15.92
2022-10-30T18:26:59.393Z,15.86
2022-10-30T18:29:25.990Z,15.86
2022-10-30T18:31:52.640Z,15.75
2022-10-30T18:34:22.231Z,15.77
2022-10-30T18:36:49.050Z,15.71
2022-10-30T18:39:15.842Z,15.63
2022-10-30T18:41:47.069Z,15.58
2022-10-30T18:44:18.091Z,15.60
2022-10-30T18:46:45.621Z,15.46
2022-10-30T18:49:12.697Z,15.37
2022-10-30T18:51:39.707Z,15.30
2022-10-30T18:54:15.087Z,15.27
2022-10-30T18:56:41.721Z,15.23
2022-10-30T18:59:08.333Z,15.17
2022-10-30T19:01:35.417Z,15.15
2022-10-30T19:04:03.092Z,15.13
2022-10-30T19:06:30.512Z,15.09
2022-10-30T19:08:57.149Z,14.85
2022-10-30T19:11:25.804Z,14.83
2022-10-30T19:13:53.870Z,14.76
2022-10-30T19:16:21.702Z,14.68
2022-10-30T19:18:48.861Z,14.69
2022-10-30T19:21:25.730Z,14.60
2022-10-30T19:23:53.933Z,14.55
2022-10-30T19:26:20.603Z,14.46
2022-10-30T19:28:47.298Z,14.45
2022-10-30T19:31:16.114Z,14.31
2022-10-30T19:33:42.966Z,14.31
2022-10-30T19:36:28.185Z,14.25
2022-10-30T19:38:55.035Z,14.11
2022-10-30T19:41:21.857Z,14.21
2022-10-30T19:43:48.657Z,14.25
2022-10-30T19:46:15.445Z,14.23
2022-10-30T19:48:58.988Z,14.18
2022-10-30T19:51:27.268Z,14.10
2022-10-30T19:53:54.103Z,14.33
2022-10-30T19:56:21.299Z,14.39
2022-10-30T19:58:47.929Z,14.40
2022-10-30T20:01:14.696Z,14.55
2022-10-30T20:03:41.449Z,14.63
2022-10-30T20:06:12.074Z,14.61
2022-10-30T20:08:38.695Z,14.66
2022-10-30T20:11:05.547Z,14.75
2022-10-30T20:13:33.456Z,14.84
2022-10-30T20:16:02.798Z,14.89
2022-10-30T20:18:31.975Z,14.94
2022-10-30T20:21:01.144Z,15.00
2022-10-30T20:23:28.561Z,15.09
2022-10-30T20:25:59.801Z,15.05
2022-10-30T20:28:31.548Z,15.11
2022-10-30T20:30:58.378Z,15.11
2022-10-30T20:33:26.028Z,15.11
2022-10-30T20:35:56.878Z,15.05
2022-10-30T20:38:29.385Z,15.10
2022-10-30T20:40:57.370Z,15.02
2022-10-30T20:43:35.591Z,14.94
2022-10-30T20:46:04.426Z,14.89
2022-10-30T20:48:31.157Z,14.88
2022-10-30T20:51:00.589Z,14.86
2022-10-30T20:53:28.040Z,14.74
2022-10-30T20:55:54.960Z,14.69
2022-10-30T20:58:21.922Z,14.68
2022-10-30T21:00:48.941Z,14.72
2022-10-30T21:03:15.789Z,14.73
2022-10-30T21:05:46.181Z,14.74
2022-10-30T21:08:14.427Z,14.69
2022-10-30T21:10:41.486Z,14.68
2022-10-30T21:13:09.815Z,14.63
2022-10-30T21:15:44.468Z,14.61
2022-10-30T21:18:15.579Z,14.48
2022-10-30T21:20:42.305Z,14.40
2022-10-30T21:23:09.249Z,14.52
2022-10-30T21:25:36.412Z,14.57
2022-10-30T21:28:03.549Z,14.54
2022-10-30T21:30:30.496Z,14.50
2022-10-30T21:32:59.186Z,14.39
2022-10-30T21:35:26.856Z,14.46
2022-10-30T21:37:53.461Z,14.53
2022-10-30T21:40:20.027Z,14.58
2022-10-30T21:42:49.766Z,14.51
2022-10-30T21:45:16.660Z,14.61
2022-10-30T21:47:43.236Z,14.54
2022-10-30T21:50:12.174Z,14.52
2022-10-30T21:52:39.660Z,14.58
2022-10-30T21:55:06.519Z,14.54
2022-10-30T21:57:33.157Z,14.51
2022-10-30T22:00:01.872Z,14.56
2022-10-30T22:02:32.702Z,14.52
2022-10-30T22:04:59.264Z,14.43
2022-10-30T22:07:25.846Z,14.43
2022-10-30T22:09:53.538Z,14.35
2022-10-30T22:12:20.146Z,14.26
2022-10-30T22:14:46.708Z,14.27
2022-10-30T22:17:13.318Z,14.27
2022-10-30T22:19:39.958Z,14.29
2022-10-30T22:22:07.042Z,14.20
2022-10-30T22:24:33.650Z,14.17
2022-10-30T22:27:00.272Z,14.19
2022-10-30T22:29:26.905Z,14.12
2022-10-30T22:31:53.527Z,14.04
2022-10-30T22:34:20.127Z,14.06
2022-10-30T22:36:46.999Z,13.81
2022-10-30T22:39:14.461Z,13.88
2022-10-30T22:41:42.175Z,13.96
2022-10-30T22:44:13.793Z,14.01
2022-10-30T22:46:40.901Z,14.02
2022-10-30T22:49:07.595Z,13.88
2022-10-30T22:51:36.391Z,13.99
2022-10-30T22:54:05.314Z,13.96
2022-10-30T22:56:34.168Z,13.84
2022-10-30T22:59:02.740Z,13.90
2022-10-30T23:01:31.756Z,13.83
2022-10-30T23:04:00.259Z,13.83
2022-10-30T23:06:28.427Z,13.76
2022-10-30T23:08:56.798Z,13.76
2022-10-30T23:11:24.203Z,13.70
2022-10-30T23:13:55.008Z,13.64
2022-10-30T23:16:24.584Z,13.64
2022-10-30T23:18:51.375Z,13.69
2022-10-30T23:21:21.072Z,13.69
2022-10-30T23:23:48.493Z,13.62
2022-10-30T23:26:21.081Z,13.60
2022-10-30T23:28:50.196Z,13.54
2022-10-30T23:31:24.501Z,13.60
2022-10-30T23:33:54.383Z,13.52
2022-10-30T23:36:21.661Z,13.41
2022-10-30T23:38:53.167Z,13.33
2022-10-30T23:41:21.212Z,13.28
2022-10-30T23:43:48.316Z,13.19
2022-10-30T23:46:14.875Z,13.08
2022-10-30T23:48:41.467Z,13.02
2022-10-30T23:51:08.756Z,13.07
2022-10-30T23:53:35.715Z,12.94
2022-10-30T23:56:03.730Z,12.91
2022-10-30T23:58:30.317Z,12.90
